createdAt,value
2023-03-02T00:01:09.121Z,1.60
2023-03-02T00:06:12.942Z,1.30
2023-03-02T00:11:16.511Z,2.00
2023-03-02T00:16:20.014Z,2.05
2023-03-02T00:21:25.346Z,3.42
2023-03-02T00:26:29.129Z,2.17
2023-03-02T00:31:32.642Z,2.13
2023-03-02T00:36:36.167Z,1.67
2023-03-02T00:41:39.662Z,2.00
2023-03-02T00:46:43.247Z,1.83
2023-03-02T00:51:46.654Z,1.80
2023-03-02T00:56:50.209Z,1.90
2023-03-02T01:01:59.011Z,2.05
2023-03-02T01:07:22.287Z,2.30
2023-03-02T01:12:26.084Z,2.20
2023-03-02T01:17:29.464Z,2.20
2023-03-02T01:22:32.821Z,2.15
2023-03-02T01:27:39.751Z,2.30
2023-03-02T01:32:43.327Z,2.63
2023-03-02T01:37:46.973Z,2.55
2023-03-02T01:42:58.743Z,3.00
2023-03-02T01:48:13.509Z,3.80
2023-03-02T01:53:17.570Z,3.75
2023-03-02T01:58:22.612Z,4.13
2023-03-02T02:03:29.737Z,3.97
2023-03-02T02:08:33.313Z,3.55
2023-03-02T02:13:39.584Z,3.53
2023-03-02T02:18:45.119Z,3.70
2023-03-02T02:24:07.058Z,4.00
2023-03-02T02:29:23.685Z,4.93
2023-03-02T02:34:35.201Z,5.70
2023-03-02T02:39:42.766Z,7.15
2023-03-02T02:44:46.903Z,7.65
2023-03-02T02:49:54.658Z,7.30
2023-03-02T02:55:00.171Z,7.28
2023-03-02T03:00:06.350Z,8.25
2023-03-02T03:05:18.453Z,8.52
2023-03-02T03:10:36.007Z,8.68
2023-03-02T03:15:39.735Z,9.13
2023-03-02T03:20:43.400Z,8.85
2023-03-02T03:25:47.385Z,8.27
2023-03-02T03:30:51.279Z,8.70
2023-03-02T03:35:54.974Z,9.63
2023-03-02T03:40:59.340Z,8.80
2023-03-02T03:46:02.990Z,8.93
2023-03-02T03:51:06.640Z,8.48
2023-03-02T03:56:10.795Z,7.97
2023-03-02T04:01:15.198Z,12.75
2023-03-02T04:06:19.823Z,8.88
2023-03-02T04:11:23.682Z,7.38
2023-03-02T04:16:27.816Z,7.47
2023-03-02T04:21:31.251Z,7.18
2023-03-02T04:26:41.401Z,6.88
2023-03-02T04:31:44.994Z,6.70
2023-03-02T04:36:49.275Z,7.57
2023-03-02T04:41:56.126Z,6.00
2023-03-02T04:46:59.914Z,5.88
2023-03-02T04:52:03.953Z,6.07
2023-03-02T04:57:09.282Z,6.13
2023-03-02T05:02:12.732Z,5.35
2023-03-02T05:07:16.477Z,4.65
2023-03-02T05:12:22.454Z,5.70
2023-03-02T05:17:25.811Z,5.13
2023-03-02T05:22:29.485Z,6.43
2023-03-02T05:27:42.954Z,5.88
2023-03-02T05:32:56.280Z,6.50
2023-03-02T05:37:59.843Z,5.72
2023-03-02T05:43:03.777Z,5.45
2023-03-02T05:48:08.175Z,5.78
2023-03-02T05:53:11.459Z,5.37
2023-03-02T05:58:17.498Z,5.10
2023-03-02T06:03:20.990Z,5.00
2023-03-02T06:08:34.748Z,8.98
2023-03-02T06:13:39.008Z,5.57
2023-03-02T06:18:42.824Z,7.27
2023-03-02T06:23:46.131Z,5.03
2023-03-02T06:28:53.177Z,6.10
2023-03-02T06:33:57.550Z,4.88
2023-03-02T06:39:01.574Z,5.47
2023-03-02T06:44:05.084Z,5.60
2023-03-02T06:49:11.395Z,5.60
2023-03-02T06:59:28.217Z,4.85
2023-03-02T07:04:31.649Z,4.50
2023-03-02T07:09:35.794Z,4.63
2023-03-02T07:14:39.231Z,5.57
2023-03-02T07:19:42.726Z,4.07
2023-03-02T07:24:46.340Z,6.50
2023-03-02T07:29:50.118Z,13.48
2023-03-02T07:34:53.688Z,3.85
2023-03-02T07:39:59.206Z,4.75
2023-03-02T07:45:05.378Z,5.05
2023-03-02T07:55:12.809Z,4.75
2023-03-02T08:00:17.649Z,6.15
2023-03-02T08:05:21.236Z,6.05
2023-03-02T08:10:25.431Z,4.18
2023-03-02T08:15:29.049Z,4.78
2023-03-02T08:20:32.530Z,12.02
2023-03-02T08:25:35.952Z,4.00
2023-03-02T08:30:39.945Z,4.63
2023-03-02T08:35:43.277Z,6.47
2023-03-02T08:40:47.693Z,4.40
2023-03-02T08:45:53.462Z,3.83
2023-03-02T08:51:03.963Z,4.00
2023-03-02T08:56:17.145Z,4.03
2023-03-02T09:01:23.929Z,3.80
2023-03-02T09:06:30.442Z,4.50
2023-03-02T09:11:35.231Z,10.82
2023-03-02T09:16:39.452Z,4.35
2023-03-02T09:21:43.193Z,4.40
2023-03-02T09:26:47.223Z,5.15
2023-03-02T09:31:50.676Z,5.18
2023-03-02T09:36:54.045Z,3.58
2023-03-02T09:42:04.775Z,3.55
2023-03-02T09:47:34.934Z,3.15
2023-03-02T09:53:02.538Z,4.15
2023-03-02T09:58:08.210Z,2.83
2023-03-02T10:03:19.634Z,2.40
2023-03-02T10:08:26.877Z,5.00
2023-03-02T10:13:34.795Z,4.55
2023-03-02T10:18:59.857Z,4.03
2023-03-02T10:24:12.166Z,2.78
2023-03-02T10:29:40.282Z,2.90
2023-03-02T10:34:43.971Z,2.95
2023-03-02T10:39:47.351Z,2.60
2023-03-02T10:44:58.315Z,2.97
2023-03-02T10:50:01.728Z,2.80
2023-03-02T10:55:13.507Z,2.70
2023-03-02T11:00:26.405Z,2.80
2023-03-02T11:05:31.815Z,3.10
2023-03-02T11:11:00.750Z,3.80
2023-03-02T11:16:26.154Z,2.80
2023-03-02T11:21:41.197Z,3.10
2023-03-02T11:26:57.446Z,4.20
2023-03-02T11:32:14.384Z,3.72
2023-03-02T11:37:25.233Z,3.80
2023-03-02T11:42:39.117Z,5.20
2023-03-02T11:48:09.232Z,5.55
2023-03-02T11:53:17.177Z,4.95
2023-03-02T11:58:24.686Z,4.30
2023-03-02T12:03:34.308Z,5.25
2023-03-02T12:08:41.495Z,3.95
2023-03-02T12:14:07.055Z,4.55
2023-03-02T12:19:26.679Z,3.55
2023-03-02T12:24:33.184Z,5.38
2023-03-02T12:29:46.000Z,7.07
2023-03-02T12:35:09.341Z,5.45
2023-03-02T12:40:26.464Z,7.15
2023-03-02T12:45:57.737Z,4.10
2023-03-02T12:51:03.460Z,7.15
2023-03-02T12:56:09.566Z,12.20
2023-03-02T13:01:22.348Z,5.90
2023-03-02T13:06:28.807Z,5.55
2023-03-02T13:11:35.129Z,5.35
2023-03-02T13:16:38.710Z,5.05
2023-03-02T13:21:42.184Z,5.50
2023-03-02T13:26:59.367Z,5.20
2023-03-02T13:32:25.650Z,5.93
2023-03-02T13:37:41.655Z,5.13
2023-03-02T13:42:45.404Z,5.40
2023-03-02T13:47:49.083Z,4.93
2023-03-02T13:52:56.495Z,5.22
2023-03-02T13:58:01.523Z,5.65
2023-03-02T14:03:11.319Z,6.90
2023-03-02T14:08:25.143Z,5.15
2023-03-02T14:13:40.637Z,4.75
2023-03-02T14:18:49.744Z,14.77
2023-03-02T14:24:03.146Z,24.80
2023-03-02T14:29:29.819Z,11.40
2023-03-02T14:34:36.056Z,5.25
2023-03-02T14:39:41.789Z,5.03
2023-03-02T14:44:46.780Z,5.05
2023-03-02T14:49:51.719Z,4.85
2023-03-02T14:54:58.781Z,5.00
2023-03-02T15:00:02.198Z,4.35
2023-03-02T15:05:05.878Z,23.73
2023-03-02T15:10:13.772Z,8.50
2023-03-02T15:15:18.069Z,6.60
2023-03-02T15:20:21.825Z,4.78
2023-03-02T15:25:27.114Z,4.20
2023-03-02T15:30:31.633Z,5.35
2023-03-02T15:35:36.353Z,7.20
2023-03-02T15:40:39.791Z,6.88
2023-03-02T15:45:47.234Z,12.52
2023-03-02T15:51:07.421Z,7.85
2023-03-02T15:56:14.708Z,8.18
2023-03-02T16:01:18.376Z,9.13
2023-03-02T16:06:22.724Z,10.75
2023-03-02T16:11:26.066Z,10.73
2023-03-02T16:16:29.790Z,9.93
2023-03-02T16:21:33.491Z,8.80
2023-03-02T16:26:39.051Z,9.35
2023-03-02T16:31:43.322Z,9.60
2023-03-02T16:36:54.836Z,12.38
2023-03-02T16:41:58.291Z,11.15
2023-03-02T16:47:09.005Z,12.40
2023-03-02T16:52:12.872Z,13.90
2023-03-02T16:57:16.668Z,16.60
2023-03-02T17:02:20.298Z,17.08
2023-03-02T17:07:23.571Z,15.80
2023-03-02T17:12:27.187Z,13.50
2023-03-02T17:17:30.824Z,13.63
2023-03-02T17:22:35.700Z,12.43
2023-03-02T17:27:39.448Z,10.68
2023-03-02T17:32:43.193Z,9.95
2023-03-02T17:37:46.496Z,9.70
2023-03-02T17:42:56.738Z,10.40
2023-03-02T17:48:02.394Z,8.90
2023-03-02T17:53:05.731Z,8.75
2023-03-02T17:58:12.382Z,9.50
2023-03-02T18:03:15.816Z,9.75
2023-03-02T18:08:19.072Z,13.43
2023-03-02T18:13:22.349Z,10.93
2023-03-02T18:18:25.770Z,10.73
2023-03-02T18:23:31.236Z,9.32
2023-03-02T18:28:34.572Z,9.55
2023-03-02T18:33:38.518Z,11.48
2023-03-02T18:38:41.908Z,10.85
2023-03-02T18:43:45.315Z,11.02
2023-03-02T18:48:51.052Z,10.52
2023-03-02T18:54:02.439Z,11.15
2023-03-02T18:59:08.048Z,30.80
2023-03-02T19:04:11.465Z,33.70
2023-03-02T19:09:15.041Z,14.25
2023-03-02T19:14:19.061Z,11.23
2023-03-02T19:19:31.137Z,11.02
2023-03-02T19:24:34.596Z,15.23
2023-03-02T19:29:39.894Z,36.33
2023-03-02T19:34:45.376Z,41.70
2023-03-02T19:39:50.508Z,22.60
2023-03-02T19:44:53.964Z,14.02
2023-03-02T19:49:57.595Z,16.98
2023-03-02T19:55:01.208Z,13.25
2023-03-02T20:00:15.324Z,12.73
2023-03-02T20:05:18.949Z,14.63
2023-03-02T20:10:29.014Z,30.52
2023-03-02T20:15:34.787Z,16.90
2023-03-02T20:20:38.140Z,85.25
2023-03-02T20:25:42.177Z,60.65
2023-03-02T20:30:50.414Z,11.35
2023-03-02T20:35:54.788Z,12.95
2023-03-02T20:40:59.322Z,13.33
2023-03-02T20:46:03.185Z,12.55
2023-03-02T20:51:07.430Z,13.90
2023-03-02T20:56:12.109Z,14.43
2023-03-02T21:01:17.469Z,30.95
2023-03-02T21:06:20.827Z,25.65
2023-03-02T21:11:24.428Z,84.05
2023-03-02T21:16:31.453Z,17.63
2023-03-02T21:21:42.017Z,20.13
2023-03-02T21:26:47.475Z,23.80
2023-03-02T21:31:51.300Z,16.85
2023-03-02T21:36:54.914Z,18.55
2023-03-02T21:41:58.608Z,51.65
2023-03-02T21:47:01.884Z,19.27
2023-03-02T21:52:05.917Z,49.60
2023-03-02T21:57:10.450Z,58.45
2023-03-02T22:02:17.837Z,16.42
2023-03-02T22:07:21.136Z,20.65
2023-03-02T22:12:25.234Z,13.75
2023-03-02T22:17:29.300Z,14.67
2023-03-02T22:22:32.695Z,13.00
2023-03-02T22:27:36.030Z,13.77
2023-03-02T22:32:39.644Z,14.27
2023-03-02T22:37:42.930Z,33.28
2023-03-02T22:42:50.641Z,17.63
2023-03-02T22:47:55.024Z,31.23
2023-03-02T22:53:03.019Z,36.90
2023-03-02T22:58:24.516Z,44.47
2023-03-02T23:03:44.544Z,18.92
2023-03-02T23:08:48.311Z,18.45
2023-03-02T23:13:53.583Z,18.92
2023-03-02T23:19:00.385Z,16.42
2023-03-02T23:24:04.352Z,17.33
2023-03-02T23:29:07.956Z,17.63
2023-03-02T23:34:12.219Z,17.85
2023-03-02T23:39:16.421Z,15.20
2023-03-02T23:44:22.919Z,14.20
2023-03-02T23:49:26.302Z,16.42
2023-03-02T23:54:29.694Z,15.73
2023-03-02T23:59:33.903Z,15.35
